Time;durP1;ratioP1;P1;durP2;ratioP2;P2;SDS_P1;SDS_P2;PMS_P1;PMS_P2;Temp;Humidity;BMP_temperature;BMP_pressure;BME280_temperature;BME280_humidity;BME280_pressure;Samples;Min_cycle;Max_cycle;Signal;HPM_P1;HPM_P2
2023/05/06 00:00:21;;;;;;;;;3.00;3.00;;;;;-147.17;100.00;-15917.19;5076007;28;51003;-64
2023/05/06 00:02:46;;;;;;;;;6.33;6.00;;;;;-147.17;100.00;-15917.19;5073935;28;51347;-64
2023/05/06 00:05:12;;;;;;;;;3.67;3.67;;;;;-147.17;100.00;-15917.19;5072381;28;51952;-64
2023/05/06 00:07:38;;;;;;;;;3.00;3.00;;;;;-147.17;100.00;-15917.19;5074874;28;51194;-64
2023/05/06 00:10:04;;;;;;;;;4.00;4.00;;;;;-147.17;100.00;-15917.19;5061444;28;51178;-63
2023/05/06 00:12:30;;;;;;;;;3.00;3.00;;;;;-147.17;100.00;-15917.19;5055855;28;51073;-64
2023/05/06 00:14:55;;;;;;;;;3.33;3.00;;;;;-147.17;100.00;-15917.19;5054892;28;51107;-64
2023/05/06 00:17:21;;;;;;;;;4.00;3.00;;;;;-147.17;100.00;-15917.19;5056558;28;51017;-64
2023/05/06 00:19:46;;;;;;;;;3.00;3.00;;;;;-147.17;100.00;-15917.19;5074663;28;51068;-64
2023/05/06 00:22:12;;;;;;;;;2.00;2.00;;;;;-147.17;100.00;-15917.19;5075653;28;50990;-64
2023/05/06 00:24:38;;;;;;;;;4.67;4.00;;;;;-147.17;100.00;-15917.19;5075137;28;51738;-63
2023/05/06 00:27:03;;;;;;;;;3.00;2.00;;;;;-147.17;100.00;-15917.19;5073105;28;51009;-63
2023/05/06 00:29:28;;;;;;;;;4.00;4.00;;;;;-147.17;100.00;-15917.19;5074998;28;51117;-63
2023/05/06 00:31:54;;;;;;;;;3.00;3.00;;;;;-147.17;100.00;-15917.19;5075415;28;51050;-63
2023/05/06 00:34:19;;;;;;;;;3.00;3.00;;;;;-147.17;100.00;-15917.19;5075190;28;51938;-63
2023/05/06 00:36:44;;;;;;;;;2.00;2.00;;;;;-147.17;100.00;-15917.19;5075032;28;50973;-64
2023/05/06 00:39:09;;;;;;;;;4.00;4.00;;;;;-147.17;100.00;-15917.19;5073995;28;51006;-64
2023/05/06 00:41:35;;;;;;;;;4.00;3.67;;;;;-147.17;100.00;-15917.19;5075568;28;50918;-64
2023/05/06 00:44:00;;;;;;;;;4.00;2.33;;;;;-147.17;100.00;-15917.19;5074991;28;51803;-65
2023/05/06 00:46:26;;;;;;;;;5.33;5.33;;;;;-147.17;100.00;-15917.19;5074990;28;50820;-65
2023/05/06 00:48:52;;;;;;;;;3.00;2.00;;;;;-147.17;100.00;-15917.19;5073554;28;50870;-64
2023/05/06 00:51:17;;;;;;;;;4.00;4.00;;;;;-147.17;100.00;-15917.19;5075163;28;50969;-63
2023/05/06 00:53:46;;;;;;;;;3.67;3.67;;;;;-147.17;100.00;-15917.19;5056359;28;54177;-64
2023/05/06 00:56:12;;;;;;;;;4.67;4.00;;;;;-147.17;100.00;-15917.19;5055055;28;51041;-64
2023/05/06 00:58:37;;;;;;;;;4.00;3.67;;;;;-147.17;100.00;-15917.19;5066346;28;51211;-64
2023/05/06 01:01:03;;;;;;;;;4.00;4.00;;;;;-147.17;100.00;-15917.19;5054881;28;51109;-63
2023/05/06 01:03:28;;;;;;;;;4.33;3.67;;;;;-147.17;100.00;-15917.19;5066374;28;51766;-65
2023/05/06 01:06:07;;;;;;;;;3.00;3.00;;;;;-147.17;100.00;-15917.19;5074578;28;51027;-65
2023/05/06 01:09:04;;;;;;;;;3.00;3.00;;;;;-147.17;100.00;-15917.19;5073810;27;51047;-64
2023/05/06 01:12:01;;;;;;;;;3.67;3.67;;;;;-147.17;100.00;-15917.19;5074662;28;51082;-65
2023/05/06 01:14:39;;;;;;;;;3.00;3.00;;;;;-147.17;100.00;-15917.19;5073894;28;51136;-65
2023/05/06 01:17:09;;;;;;;;;2.00;2.00;;;;;-147.17;100.00;-15917.19;5074680;28;50982;-64
2023/05/06 01:19:41;;;;;;;;;3.00;3.00;;;;;-147.17;100.00;-15917.19;5073625;28;51033;-64
2023/05/06 01:22:09;;;;;;;;;2.00;2.00;;;;;-147.17;100.00;-15917.19;5056251;28;51041;-64
2023/05/06 01:24:42;;;;;;;;;2.00;2.00;;;;;-147.17;100.00;-15917.19;5074230;28;52006;-64
2023/05/06 01:27:09;;;;;;;;;3.00;3.00;;;;;-147.17;100.00;-15917.19;5074087;28;51263;-63
2023/05/06 01:29:38;;;;;;;;;3.00;2.00;;;;;-147.17;100.00;-15917.19;5042606;28;50977;-64
2023/05/06 01:32:42;;;;;;;;;3.67;3.67;;;;;-147.17;100.00;-15917.19;5074205;28;50934;-64
2023/05/06 01:35:25;;;;;;;;;4.33;4.00;;;;;-147.17;100.00;-15917.19;5072047;28;52727;-63
2023/05/06 01:38:05;;;;;;;;;3.00;3.00;;;;;-147.17;100.00;-15917.19;5069061;28;51155;-63
2023/05/06 01:40:32;;;;;;;;;5.00;4.00;;;;;-147.17;100.00;-15917.19;5054015;28;50907;-64
2023/05/06 01:43:01;;;;;;;;;4.00;3.33;;;;;-147.17;100.00;-15917.19;5054319;28;51054;-63
2023/05/06 01:45:29;;;;;;;;;5.00;5.00;;;;;-147.17;100.00;-15917.19;5053718;28;52069;-64
2023/05/06 01:47:56;;;;;;;;;4.33;3.33;;;;;-147.17;100.00;-15917.19;5057289;28;50910;-65
2023/05/06 01:50:22;;;;;;;;;3.00;3.00;;;;;-147.17;100.00;-15917.19;5074147;28;50949;-65
2023/05/06 01:52:57;;;;;;;;;6.00;5.00;;;;;-147.17;100.00;-15917.19;5074235;28;51145;-64
2023/05/06 01:55:23;;;;;;;;;6.00;6.00;;;;;-147.17;100.00;-15917.19;5060943;28;51689;-64
2023/05/06 01:57:48;;;;;;;;;6.67;6.33;;;;;-147.17;100.00;-15917.19;5056386;28;51243;-64
2023/05/06 02:00:14;;;;;;;;;5.00;5.00;;;;;-147.17;100.00;-15917.19;5070091;28;51164;-65
2023/05/06 02:02:39;;;;;;;;;3.67;3.67;;;;;-147.17;100.00;-15917.19;5070696;28;51177;-64
2023/05/06 02:05:05;;;;;;;;;4.67;4.67;;;;;-147.17;100.00;-15917.19;5072951;28;57639;-64
2023/05/06 02:07:30;;;;;;;;;4.00;4.00;;;;;-147.17;100.00;-15917.19;5063813;28;51094;-64
2023/05/06 02:09:56;;;;;;;;;4.33;4.33;;;;;-147.17;100.00;-15917.19;5073810;28;51079;-63
2023/05/06 02:12:21;;;;;;;;;4.67;4.00;;;;;-147.17;100.00;-15917.19;5074122;28;51149;-64
2023/05/06 02:14:46;;;;;;;;;4.33;4.00;;;;;-147.17;100.00;-15917.19;5072123;28;58654;-64
2023/05/06 02:17:11;;;;;;;;;4.00;4.00;;;;;-147.17;100.00;-15917.19;5058271;28;51088;-63
2023/05/06 02:19:37;;;;;;;;;6.33;6.33;;;;;-147.17;100.00;-15917.19;5064154;28;60545;-64
2023/05/06 02:22:02;;;;;;;;;5.00;4.33;;;;;-147.17;100.00;-15917.19;5053722;28;50976;-64
2023/05/06 02:24:28;;;;;;;;;6.00;6.00;;;;;-147.17;100.00;-15917.19;5052981;28;53058;-64
2023/05/06 02:26:53;;;;;;;;;4.67;4.67;;;;;-147.17;100.00;-15917.19;5053359;28;51121;-64
2023/05/06 02:29:18;;;;;;;;;5.00;4.67;;;;;-147.17;100.00;-15917.19;5067938;28;50886;-63
2023/05/06 02:31:44;;;;;;;;;6.67;6.00;;;;;-147.17;100.00;-15917.19;5073665;28;50928;-64
2023/05/06 02:34:09;;;;;;;;;5.00;5.00;;;;;-147.17;100.00;-15917.19;5073322;28;51786;-64
2023/05/06 02:36:35;;;;;;;;;8.67;7.33;;;;;-147.17;100.00;-15917.19;5073666;28;50882;-64
2023/05/06 02:39:00;;;;;;;;;5.00;5.00;;;;;-147.17;100.00;-15917.19;5072450;28;50966;-64
2023/05/06 02:41:25;;;;;;;;;7.00;5.67;;;;;-147.17;100.00;-15917.19;5073381;28;51319;-64
2023/05/06 02:43:51;;;;;;;;;4.00;4.00;;;;;-147.17;100.00;-15917.19;5071908;28;52711;-64
2023/05/06 02:46:16;;;;;;;;;5.67;5.67;;;;;-147.17;100.00;-15917.19;5072954;28;51082;-64
2023/05/06 02:48:41;;;;;;;;;6.00;5.00;;;;;-147.17;100.00;-15917.19;5071771;28;50998;-64
2023/05/06 02:51:07;;;;;;;;;7.00;6.00;;;;;-147.17;100.00;-15917.19;5072263;28;52721;-64
2023/05/06 02:53:32;;;;;;;;;6.00;5.67;;;;;-147.17;100.00;-15917.19;5073171;28;51094;-64
2023/05/06 02:55:57;;;;;;;;;5.50;5.00;;;;;-147.17;100.00;-15917.19;5055360;28;51341;-64
2023/05/06 02:58:23;;;;;;;;;6.00;5.00;;;;;-147.17;100.00;-15917.19;5058923;28;51088;-64
2023/05/06 03:00:48;;;;;;;;;4.00;4.00;;;;;-147.17;100.00;-15917.19;5059868;28;51425;-64
2023/05/06 03:03:14;;;;;;;;;4.33;4.33;;;;;-147.17;100.00;-15917.19;5052311;28;51794;-64
2023/05/06 03:05:39;;;;;;;;;4.00;3.33;;;;;-147.17;100.00;-15917.19;5052808;28;51038;-64
2023/05/06 03:08:05;;;;;;;;;5.00;4.00;;;;;-147.17;100.00;-15917.19;5056886;28;51160;-63
2023/05/06 03:10:30;;;;;;;;;7.00;7.00;;;;;-147.17;100.00;-15917.19;5071892;28;51346;-64
2023/05/06 03:12:55;;;;;;;;;4.00;4.00;;;;;-147.17;100.00;-15917.19;5072423;28;58250;-64
2023/05/06 03:15:21;;;;;;;;;5.33;5.33;;;;;-147.17;100.00;-15917.19;5072563;28;55393;-64
2023/05/06 03:17:46;;;;;;;;;6.00;5.00;;;;;-147.17;100.00;-15917.19;5053107;28;51089;-64
2023/05/06 03:20:12;;;;;;;;;5.67;5.67;;;;;-147.17;100.00;-15917.19;5072324;28;51247;-64
2023/05/06 03:22:37;;;;;;;;;6.00;6.00;;;;;-147.17;100.00;-15917.19;5072816;28;51528;-63
2023/05/06 03:25:03;;;;;;;;;6.33;5.67;;;;;-147.17;100.00;-15917.19;5072749;28;50934;-63
2023/05/06 03:27:29;;;;;;;;;7.00;5.00;;;;;-147.17;100.00;-15917.19;5071316;28;50921;-64
2023/05/06 03:29:54;;;;;;;;;6.00;6.00;;;;;-147.17;100.00;-15917.19;5070566;28;51355;-64
2023/05/06 03:32:20;;;;;;;;;5.00;5.00;;;;;-147.17;100.00;-15917.19;5072248;28;51032;-64
2023/05/06 03:34:45;;;;;;;;;6.00;6.00;;;;;-147.17;100.00;-15917.19;5072626;28;51062;-64
2023/05/06 03:37:10;;;;;;;;;6.00;6.00;;;;;-147.17;100.00;-15917.19;5072569;28;51207;-63
2023/05/06 03:39:36;;;;;;;;;5.00;5.00;;;;;-147.17;100.00;-15917.19;5069398;28;51041;-64
2023/05/06 03:42:01;;;;;;;;;6.33;6.00;;;;;-147.17;100.00;-15917.19;5052282;28;53575;-63
2023/05/06 03:44:26;;;;;;;;;5.00;4.67;;;;;-147.17;100.00;-15917.19;5051261;28;51093;-64
2023/05/06 03:46:52;;;;;;;;;7.00;6.67;;;;;-147.17;100.00;-15917.19;5051986;28;51730;-63
2023/05/06 03:49:19;;;;;;;;;6.00;6.00;;;;;-147.17;100.00;-15917.19;5051605;28;52061;-64
2023/05/06 03:51:44;;;;;;;;;7.67;6.00;;;;;-147.17;100.00;-15917.19;5052067;28;52034;-64
2023/05/06 03:54:10;;;;;;;;;6.00;6.00;;;;;-147.17;100.00;-15917.19;5055090;28;51042;-64
2023/05/06 03:56:35;;;;;;;;;6.33;5.33;;;;;-147.17;100.00;-15917.19;5066907;28;51706;-64
2023/05/06 03:59:00;;;;;;;;;7.00;6.33;;;;;-147.17;100.00;-15917.19;5062688;28;51179;-65
2023/05/06 04:01:26;;;;;;;;;7.00;6.67;;;;;-147.17;100.00;-15917.19;5066720;28;51147;-62
2023/05/06 04:03:53;;;;;;;;;4.33;4.33;;;;;-147.17;100.00;-15917.19;5070950;28;51253;-65
2023/05/06 04:06:18;;;;;;;;;5.33;5.33;;;;;-147.17;100.00;-15917.19;5071269;28;51026;-65
2023/05/06 04:08:43;;;;;;;;;4.00;4.00;;;;;-147.17;100.00;-15917.19;5063729;28;51004;-64
2023/05/06 04:11:09;;;;;;;;;4.67;4.67;;;;;-147.17;100.00;-15917.19;5055166;28;51168;-64
2023/05/06 04:13:34;;;;;;;;;5.00;4.67;;;;;-147.17;100.00;-15917.19;5055577;28;51041;-64
2023/05/06 04:16:00;;;;;;;;;6.00;5.33;;;;;-147.17;100.00;-15917.19;5065207;28;51028;-65
2023/05/06 04:18:25;;;;;;;;;6.67;6.33;;;;;-147.17;100.00;-15917.19;5070349;28;51249;-64
2023/05/06 04:20:51;;;;;;;;;5.33;5.33;;;;;-147.17;100.00;-15917.19;5074664;28;51854;-63
2023/05/06 04:23:16;;;;;;;;;7.33;6.67;;;;;-147.17;100.00;-15917.19;5075650;28;51071;-64
2023/05/06 04:25:43;;;;;;;;;5.67;5.67;;;;;-147.17;100.00;-15917.19;5070132;28;51251;-64
2023/05/06 04:28:10;;;;;;;;;5.00;5.00;;;;;-147.17;100.00;-15917.19;5072136;28;50979;-63
2023/05/06 04:30:36;;;;;;;;;2.00;2.00;;;;;-147.17;100.00;-15917.19;5051522;28;53102;-63
2023/05/06 04:33:02;;;;;;;;;7.67;6.67;;;;;-147.17;100.00;-15917.19;5074472;28;51159;-63
2023/05/06 04:35:28;;;;;;;;;7.00;7.00;;;;;-147.17;100.00;-15917.19;5075096;28;51053;-63
2023/05/06 04:37:55;;;;;;;;;7.33;7.33;;;;;-147.17;100.00;-15917.19;5074143;28;51509;-64
2023/05/06 04:40:21;;;;;;;;;8.00;8.00;;;;;-147.17;100.00;-15917.19;5075019;28;52734;-65
2023/05/06 04:42:46;;;;;;;;;7.00;6.00;;;;;-147.17;100.00;-15917.19;5055784;28;51050;-63
2023/05/06 04:45:11;;;;;;;;;7.00;7.00;;;;;-147.17;100.00;-15917.19;5069406;28;50987;-64
2023/05/06 04:47:37;;;;;;;;;9.00;7.00;;;;;-147.17;100.00;-15917.19;5056775;28;51085;-63
2023/05/06 04:50:03;;;;;;;;;8.00;6.33;;;;;-147.17;100.00;-15917.19;5073537;28;53814;-64
2023/05/06 04:52:28;;;;;;;;;7.67;7.33;;;;;-147.17;100.00;-15917.19;5075105;28;51134;-63
2023/05/06 04:54:54;;;;;;;;;6.33;6.33;;;;;-147.17;100.00;-15917.19;5070214;28;51054;-64
2023/05/06 04:57:19;;;;;;;;;7.33;7.00;;;;;-147.17;100.00;-15917.19;5065351;28;51060;-64
2023/05/06 04:59:45;;;;;;;;;9.67;7.67;;;;;-147.17;100.00;-15917.19;5074161;28;50966;-65
2023/05/06 05:02:10;;;;;;;;;8.33;8.33;;;;;-147.17;100.00;-15917.19;5074745;28;50997;-64
2023/05/06 05:04:35;;;;;;;;;7.00;7.00;;;;;-147.17;100.00;-15917.19;5074761;28;50998;-64
2023/05/06 05:07:01;;;;;;;;;9.00;9.00;;;;;-147.17;100.00;-15917.19;5075371;28;51362;-63
2023/05/06 05:09:26;;;;;;;;;9.00;9.00;;;;;-147.17;100.00;-15917.19;5070066;28;60506;-64
2023/05/06 05:11:51;;;;;;;;;8.25;7.25;;;;;-147.17;100.00;-15917.19;5074316;28;51086;-64
2023/05/06 05:14:16;;;;;;;;;7.00;7.00;;;;;-147.17;100.00;-15917.19;5067337;28;51035;-64
2023/05/06 05:16:42;;;;;;;;;7.00;7.00;;;;;-147.17;100.00;-15917.19;5054307;28;51041;-63
2023/05/06 05:19:07;;;;;;;;;9.67;9.33;;;;;-147.17;100.00;-15917.19;5062973;28;51911;-63
2023/05/06 05:21:33;;;;;;;;;7.00;7.00;;;;;-147.17;100.00;-15917.19;5073580;28;51008;-64
2023/05/06 05:23:58;;;;;;;;;7.33;7.00;;;;;-147.17;100.00;-15917.19;5074667;28;50962;-65
2023/05/06 05:26:23;;;;;;;;;7.00;7.00;;;;;-147.17;100.00;-15917.19;5073199;28;50889;-65
2023/05/06 05:28:49;;;;;;;;;8.50;8.50;;;;;-147.17;100.00;-15917.19;5073321;28;51049;-64
2023/05/06 05:31:14;;;;;;;;;11.67;10.67;;;;;-147.17;100.00;-15917.19;5074076;28;50986;-63
2023/05/06 05:33:39;;;;;;;;;11.00;9.00;;;;;-147.17;100.00;-15917.19;5074610;28;51117;-64
2023/05/06 05:36:05;;;;;;;;;11.00;10.00;;;;;-147.17;100.00;-15917.19;5073797;28;50886;-64
2023/05/06 05:38:31;;;;;;;;;10.33;10.00;;;;;-147.17;100.00;-15917.19;5072480;28;51837;-64
2023/05/06 05:40:56;;;;;;;;;10.67;10.33;;;;;-147.17;100.00;-15917.19;5074174;28;50900;-64
2023/05/06 05:43:24;;;;;;;;;14.00;13.25;;;;;-147.17;100.00;-15917.19;5074280;28;50947;-64
2023/05/06 05:45:50;;;;;;;;;11.25;11.25;;;;;-147.17;100.00;-15917.19;5072564;28;51041;-64
2023/05/06 05:48:15;;;;;;;;;13.00;12.67;;;;;-147.17;100.00;-15917.19;5072917;28;51170;-63
2023/05/06 05:50:40;;;;;;;;;12.00;11.00;;;;;-147.17;100.00;-15917.19;5073000;28;51054;-63
2023/05/06 05:53:06;;;;;;;;;10.67;10.33;;;;;-147.17;100.00;-15917.19;5074044;28;50978;-63
2023/05/06 05:55:31;;;;;;;;;12.00;10.00;;;;;-147.17;100.00;-15917.19;5070883;28;51058;-63
2023/05/06 05:57:56;;;;;;;;;10.00;9.33;;;;;-147.17;100.00;-15917.19;5054241;28;51013;-63
2023/05/06 06:00:22;;;;;;;;;11.00;10.00;;;;;-147.17;100.00;-15917.19;5069512;28;51054;-63
2023/05/06 06:02:47;;;;;;;;;12.33;11.67;;;;;-147.17;100.00;-15917.19;5067947;28;51847;-64
2023/05/06 06:05:12;;;;;;;;;11.25;11.25;;;;;-147.17;100.00;-15917.19;5065828;28;51532;-62
2023/05/06 06:07:38;;;;;;;;;9.67;9.00;;;;;-147.17;100.00;-15917.19;5071091;27;51588;-64
2023/05/06 06:10:04;;;;;;;;;11.25;9.75;;;;;-147.17;100.00;-15917.19;5066415;28;51154;-65
2023/05/06 06:12:29;;;;;;;;;10.00;9.00;;;;;-147.17;100.00;-15917.19;5044296;28;50986;-64
2023/05/06 06:14:55;;;;;;;;;11.67;10.33;;;;;-147.17;100.00;-15917.19;5067840;28;50979;-64
2023/05/06 06:17:20;;;;;;;;;11.33;10.67;;;;;-147.17;100.00;-15917.19;5071547;28;54423;-66
2023/05/06 06:19:46;;;;;;;;;11.75;11.00;;;;;-147.17;100.00;-15917.19;5052972;28;51040;-65
2023/05/06 06:22:11;;;;;;;;;13.00;12.00;;;;;-147.17;100.00;-15917.19;5072823;28;51200;-64
2023/05/06 06:24:37;;;;;;;;;10.00;10.00;;;;;-147.17;100.00;-15917.19;5072822;28;51121;-67
2023/05/06 06:27:02;;;;;;;;;10.00;9.33;;;;;-147.17;100.00;-15917.19;5068846;28;52874;-63
2023/05/06 06:29:27;;;;;;;;;10.67;9.67;;;;;-147.17;100.00;-15917.19;5046672;28;51066;-63
2023/05/06 06:31:54;;;;;;;;;10.00;10.00;;;;;-147.17;100.00;-15917.19;5060841;28;51695;-63
2023/05/06 06:34:20;;;;;;;;;11.00;10.00;;;;;-147.17;100.00;-15917.19;5072531;28;51131;-65
2023/05/06 06:36:46;;;;;;;;;9.67;9.67;;;;;-147.17;100.00;-15917.19;5072830;28;51806;-63
2023/05/06 06:39:12;;;;;;;;;9.67;9.67;;;;;-147.17;100.00;-15917.19;5071958;28;51170;-63
2023/05/06 06:41:37;;;;;;;;;11.67;11.00;;;;;-147.17;100.00;-15917.19;5073178;28;51038;-63
2023/05/06 06:44:03;;;;;;;;;10.00;9.67;;;;;-147.17;100.00;-15917.19;5071717;28;50932;-63
2023/05/06 06:46:28;;;;;;;;;21.00;20.00;;;;;-147.17;100.00;-15917.19;5071267;28;52850;-63
2023/05/06 06:48:54;;;;;;;;;11.00;11.00;;;;;-147.17;100.00;-15917.19;5054371;28;56892;-63
2023/05/06 06:51:19;;;;;;;;;11.00;9.75;;;;;-147.17;100.00;-15917.19;5073156;28;50965;-64
2023/05/06 06:53:47;;;;;;;;;10.67;10.00;;;;;-147.17;100.00;-15917.19;5065935;28;51179;-64
2023/05/06 06:56:12;;;;;;;;;10.00;10.00;;;;;-147.17;100.00;-15917.19;5072475;28;51126;-63
2023/05/06 06:58:38;;;;;;;;;10.67;10.67;;;;;-147.17;100.00;-15917.19;5059302;28;50967;-63
2023/05/06 07:01:03;;;;;;;;;11.33;11.00;;;;;-147.17;100.00;-15917.19;5059402;28;51181;-63
2023/05/06 07:03:28;;;;;;;;;12.00;11.75;;;;;-147.17;100.00;-15917.19;5070087;28;50985;-64
2023/05/06 07:05:54;;;;;;;;;8.00;7.50;;;;;-147.17;100.00;-15917.19;5072653;28;51765;-63
2023/05/06 07:08:20;;;;;;;;;11.33;10.67;;;;;-147.17;100.00;-15917.19;5072792;28;51143;-64
2023/05/06 07:10:45;;;;;;;;;11.33;11.33;;;;;-147.17;100.00;-15917.19;5054932;28;51094;-64
2023/05/06 07:13:11;;;;;;;;;9.00;8.67;;;;;-147.17;100.00;-15917.19;5058428;28;51044;-64
2023/05/06 07:15:36;;;;;;;;;11.00;10.00;;;;;-147.17;100.00;-15917.19;5072796;28;50951;-63
2023/05/06 07:18:01;;;;;;;;;9.00;9.00;;;;;-147.17;100.00;-15917.19;5072035;28;58752;-65
2023/05/06 07:20:27;;;;;;;;;9.67;9.67;;;;;-147.17;100.00;-15917.19;5071496;28;51136;-64
2023/05/06 07:22:52;;;;;;;;;11.00;10.67;;;;;-147.17;100.00;-15917.19;5053193;28;51263;-64
2023/05/06 07:25:17;;;;;;;;;10.00;10.00;;;;;-147.17;100.00;-15917.19;5072488;28;51088;-63
2023/05/06 07:27:43;;;;;;;;;8.33;7.67;;;;;-147.17;100.00;-15917.19;5072393;28;51094;-63
2023/05/06 07:30:08;;;;;;;;;8.00;7.67;;;;;-147.17;100.00;-15917.19;5072486;28;51219;-64
2023/05/06 07:32:34;;;;;;;;;12.00;10.67;;;;;-147.17;100.00;-15917.19;5053956;28;51296;-63
2023/05/06 07:34:59;;;;;;;;;12.33;12.00;;;;;-147.17;100.00;-15917.19;5061501;28;51865;-65
2023/05/06 07:37:24;;;;;;;;;9.00;9.00;;;;;-147.17;100.00;-15917.19;5055348;28;51059;-64
2023/05/06 07:39:50;;;;;;;;;10.00;9.00;;;;;-147.17;100.00;-15917.19;5061907;28;54828;-65
2023/05/06 07:42:15;;;;;;;;;9.67;8.67;;;;;-147.17;100.00;-15917.19;5055989;28;51200;-63
2023/05/06 07:44:40;;;;;;;;;9.00;9.00;;;;;-147.17;100.00;-15917.19;5055619;28;51835;-64
2023/05/06 07:47:06;;;;;;;;;8.00;8.00;;;;;-147.17;100.00;-15917.19;5055127;28;50969;-64
2023/05/06 07:49:33;;;;;;;;;9.67;9.67;;;;;-147.17;100.00;-15917.19;5063369;28;51061;-63
2023/05/06 07:51:58;;;;;;;;;9.00;8.00;;;;;-147.17;100.00;-15917.19;5073046;28;51094;-63
2023/05/06 07:54:23;;;;;;;;;10.00;10.00;;;;;-147.17;100.00;-15917.19;5070841;28;51699;-63
2023/05/06 07:56:49;;;;;;;;;9.00;9.00;;;;;-147.17;100.00;-15917.19;5055276;28;51051;-64
2023/05/06 07:59:14;;;;;;;;;17.67;14.67;;;;;-147.17;100.00;-15917.19;5060411;28;51163;-64
2023/05/06 08:01:39;;;;;;;;;9.33;9.00;;;;;-147.17;100.00;-15917.19;5065455;28;51252;-63
2023/05/06 08:04:06;;;;;;;;;7.33;7.00;;;;;-147.17;100.00;-15917.19;5055053;28;51661;-64
2023/05/06 08:06:33;;;;;;;;;9.67;8.00;;;;;-147.17;100.00;-15917.19;5055695;28;51157;-64
2023/05/06 08:08:58;;;;;;;;;8.33;8.33;;;;;-147.17;100.00;-15917.19;5078648;27;50961;-63
2023/05/06 08:11:24;;;;;;;;;7.67;7.33;;;;;-147.17;100.00;-15917.19;5069389;28;51329;-63
2023/05/06 08:13:49;;;;;;;;;7.67;7.67;;;;;-147.17;100.00;-15917.19;5065450;28;50966;-63
2023/05/06 08:16:15;;;;;;;;;7.67;7.67;;;;;-147.17;100.00;-15917.19;5054836;28;50982;-65
2023/05/06 08:18:40;;;;;;;;;9.67;7.67;;;;;-147.17;100.00;-15917.19;5066825;28;51294;-63
2023/05/06 08:21:06;;;;;;;;;7.33;7.00;;;;;-147.17;100.00;-15917.19;5069053;28;51256;-63
2023/05/06 08:23:31;;;;;;;;;7.00;6.67;;;;;-147.17;100.00;-15917.19;5067456;28;51094;-65
2023/05/06 08:25:58;;;;;;;;;8.33;7.67;;;;;-147.17;100.00;-15917.19;5035866;28;51064;-64
2023/05/06 08:28:23;;;;;;;;;8.00;8.00;;;;;-147.17;100.00;-15917.19;5054522;28;51082;-64
2023/05/06 08:30:51;;;;;;;;;8.00;7.33;;;;;-147.17;100.00;-15917.19;5058641;28;51030;-63
2023/05/06 08:33:16;;;;;;;;;10.00;9.00;;;;;-147.17;100.00;-15917.19;5054293;28;52827;-64
2023/05/06 08:35:41;;;;;;;;;10.00;8.67;;;;;-147.17;100.00;-15917.19;5067462;28;51157;-65
2023/05/06 08:38:07;;;;;;;;;9.00;7.33;;;;;-147.17;100.00;-15917.19;5055394;27;51256;-63
2023/05/06 08:40:33;;;;;;;;;7.00;7.00;;;;;-147.17;100.00;-15917.19;5073013;28;51268;-64
2023/05/06 08:42:58;;;;;;;;;8.33;8.00;;;;;-147.17;100.00;-15917.19;5060019;28;50906;-63
2023/05/06 08:45:24;;;;;;;;;8.00;7.00;;;;;-147.17;100.00;-15917.19;5060188;28;60223;-63
2023/05/06 08:47:50;;;;;;;;;9.33;8.67;;;;;-147.17;100.00;-15917.19;5053258;28;50998;-63
2023/05/06 08:50:16;;;;;;;;;7.67;6.67;;;;;-147.17;100.00;-15915.72;5054824;28;51020;-63
2023/05/06 08:52:42;;;;;;;;;5.33;5.33;;;;;-147.17;100.00;-15917.19;5067917;28;51212;-63
2023/05/06 08:55:08;;;;;;;;;6.00;6.00;;;;;-147.17;100.00;-15917.19;5063611;28;51163;-63
2023/05/06 08:57:34;;;;;;;;;7.00;6.67;;;;;-147.17;100.00;-15915.72;5040747;28;51159;-62
2023/05/06 09:00:00;;;;;;;;;5.33;5.33;;;;;-147.17;100.00;-15917.19;5054249;28;51075;-64
2023/05/06 09:02:26;;;;;;;;;5.33;5.33;;;;;-147.17;100.00;-15915.72;5053367;28;51738;-63
2023/05/06 09:04:53;;;;;;;;;9.00;8.00;;;;;-147.17;100.00;-15917.19;5053366;28;51067;-64
2023/05/06 09:07:23;;;;;;;;;7.00;6.33;;;;;-147.17;100.00;-15917.19;5054702;28;51030;-64
2023/05/06 09:09:51;;;;;;;;;7.67;7.33;;;;;-147.17;100.00;-15917.19;5053565;28;50993;-64
2023/05/06 09:12:16;;;;;;;;;7.67;6.67;;;;;-147.17;100.00;-15917.19;5034518;28;52417;-63
2023/05/06 09:14:42;;;;;;;;;8.33;6.33;;;;;-147.17;100.00;-15917.19;5053212;28;51176;-64
2023/05/06 09:17:22;;;;;;;;;8.33;7.00;;;;;-147.17;100.00;-15917.19;5051872;28;51104;-63
2023/05/06 09:19:52;;;;;;;;;6.00;6.00;;;;;-147.17;100.00;-15917.19;5054016;28;51064;-63
2023/05/06 09:22:21;;;;;;;;;5.00;4.33;;;;;-147.17;100.00;-15917.19;5053854;28;50943;-63
2023/05/06 09:24:55;;;;;;;;;7.00;6.00;;;;;-147.17;100.00;-15917.19;5070664;28;51169;-63
2023/05/06 09:27:20;;;;;;;;;6.00;5.33;;;;;-147.17;100.00;-15917.19;5064428;28;51131;-63
2023/05/06 09:30:21;;;;;;;;;8.00;6.00;;;;;-147.17;100.00;-15917.19;5060322;28;51038;-63
2023/05/06 09:32:48;;;;;;;;;6.67;5.00;;;;;-147.17;100.00;-15917.19;4990157;28;52206;-63
2023/05/06 09:35:13;;;;;;;;;5.00;4.00;;;;;-147.17;100.00;-15917.19;5053167;28;50938;-63
2023/05/06 09:37:39;;;;;;;;;6.33;6.33;;;;;-147.17;100.00;-15917.19;5068864;28;51571;-64
2023/05/06 09:40:05;;;;;;;;;8.33;7.00;;;;;-147.17;100.00;-15917.19;5062936;28;51293;-63
2023/05/06 09:42:31;;;;;;;;;4.67;4.00;;;;;-147.17;100.00;-15917.19;5064803;28;50961;-64
2023/05/06 09:44:59;;;;;;;;;3.00;2.00;;;;;-147.17;100.00;-15917.19;5043302;28;51076;-64
2023/05/06 09:47:26;;;;;;;;;5.00;5.00;;;;;-147.17;100.00;-15917.19;5069426;28;51002;-64
2023/05/06 09:49:59;;;;;;;;;5.00;5.00;;;;;-147.17;100.00;-15917.19;5061470;28;51285;-64
2023/05/06 09:52:28;;;;;;;;;7.67;6.00;;;;;-147.17;100.00;-15917.19;5072844;28;51922;-64
2023/05/06 09:54:54;;;;;;;;;6.67;6.33;;;;;-147.17;100.00;-15915.72;5069480;28;51101;-63
2023/05/06 09:57:21;;;;;;;;;4.67;4.33;;;;;-147.17;100.00;-15172.50;5063800;28;51108;-63
2023/05/06 09:59:47;;;;;;;;;4.00;4.00;;;;;-147.17;100.00;-14429.16;5073458;28;50924;-63
2023/05/06 10:02:13;;;;;;;;;6.67;5.00;;;;;-147.17;100.00;-13437.75;5071183;28;51833;-64
2023/05/06 10:04:44;;;;;;;;;9.33;9.33;;;;;-147.17;100.00;-13933.50;5064124;28;51282;-64
2023/05/06 10:07:11;;;;;;;;;3.00;2.67;;;;;-147.17;100.00;-11950.22;5064107;27;51508;-63
2023/05/06 10:09:38;;;;;;;;;7.33;6.33;;;;;-147.17;100.00;-12446.13;5076009;27;51140;-63
2023/05/06 10:12:06;;;;;;;;;7.00;6.33;;;;;-147.17;100.00;-11950.22;5051771;28;52764;-62
2023/05/06 10:14:31;;;;;;;;;5.00;5.00;;;;;-147.17;100.00;-10462.09;5047117;28;51212;-62
2023/05/06 10:16:58;;;;;;;;;6.67;6.00;;;;;-147.17;100.00;-9469.69;5053805;28;51117;-63
2023/05/06 10:19:24;;;;;;;;;4.00;4.00;;;;;-147.17;100.00;-9469.69;5056992;28;52036;-63
2023/05/06 10:22:01;;;;;;;;;5.33;5.00;;;;;-147.17;100.00;-9717.81;5052051;28;51969;-63
2023/05/06 10:24:35;;;;;;;;;6.00;5.00;;;;;-147.17;100.00;-7732.34;5059257;28;51078;-62
2023/05/06 10:27:04;;;;;;;;;5.67;5.00;;;;;-147.17;100.00;-7235.84;5070874;28;51082;-62
2023/05/06 10:29:33;;;;;;;;;5.00;5.00;;;;;-147.17;100.00;-6739.25;5072981;28;51259;-64
2023/05/06 10:32:02;;;;;;;;;5.00;5.00;;;;;-147.17;100.00;-6490.94;5071872;28;51723;-62
2023/05/06 10:34:34;;;;;;;;;4.33;4.33;;;;;-147.17;100.00;-7235.84;5070743;28;51015;-63
2023/05/06 10:37:00;;;;;;;;;5.33;5.00;;;;;-147.17;100.00;-7235.84;5071156;28;51025;-63
2023/05/06 10:39:26;;;;;;;;;5.33;5.33;;;;;-147.17;100.00;-6987.56;5065399;28;51792;-63
2023/05/06 10:41:52;;;;;;;;;3.00;3.00;;;;;-147.17;100.00;-5497.50;5052493;28;52110;-63
2023/05/06 10:44:17;;;;;;;;;5.33;5.00;;;;;-147.17;100.00;-5000.69;5051536;28;51243;-63
2023/05/06 10:46:57;;;;;;;;;9.00;8.00;;;;;-147.17;100.00;-3758.38;5053528;28;51459;-63
2023/05/06 10:49:23;;;;;;;;;5.67;5.67;;;;;-147.17;100.00;-4006.88;5055447;28;51127;-64
2023/05/06 10:52:10;;;;;;;;;4.33;4.00;;;;;-147.17;100.00;-3261.34;5048020;28;52696;-64
2023/05/06 10:54:47;;;;;;;;;5.67;5.67;;;;;-147.17;100.00;-1769.84;5040072;28;51347;-64
2023/05/06 10:57:12;;;;;;;;;5.00;5.00;;;;;-147.17;100.00;219.72;5051143;28;51563;-63